sensor_id;sensor_type;location;lat;lon;timestamp;pressure;altitude;pressure_sealevel;temperature;humidity
38225;BME280;24025;48.138;11.428;2022-09-09T00:00:52;95356.94;;;16.85;70.36
38225;BME280;24025;48.138;11.428;2022-09-09T00:03:35;95354.22;;;16.85;71.22
38225;BME280;24025;48.138;11.428;2022-09-09T00:06:35;95351.53;;;16.85;70.34
38225;BME280;24025;48.138;11.428;2022-09-09T00:09:17;95347.28;;;16.88;70.78
38225;BME280;24025;48.138;11.428;2022-09-09T00:11:52;95354.63;;;16.87;71.52
38225;BME280;24025;48.138;11.428;2022-09-09T00:14:27;95348.44;;;16.87;71.33
38225;BME280;24025;48.138;11.428;2022-09-09T00:17:18;95341.16;;;16.87;71.09
38225;BME280;24025;48.138;11.428;2022-09-09T00:20:03;95340.72;;;16.89;70.60
38225;BME280;24025;48.138;11.428;2022-09-09T00:26:38;95342.66;;;16.88;70.60
38225;BME280;24025;48.138;11.428;2022-09-09T00:28:50;95343.06;;;16.87;70.81
38225;BME280;24025;48.138;11.428;2022-09-09T00:31:28;95341.19;;;16.84;71.70
38225;BME280;24025;48.138;11.428;2022-09-09T00:34:05;95334.69;;;16.81;70.63
38225;BME280;24025;48.138;11.428;2022-09-09T00:36:41;95350.88;;;16.78;71.14
38225;BME280;24025;48.138;11.428;2022-09-09T00:39:34;95348.25;;;16.74;71.57
38225;BME280;24025;48.138;11.428;2022-09-09T00:42:13;95351.00;;;16.70;71.81
38225;BME280;24025;48.138;11.428;2022-09-09T00:53:05;95346.53;;;16.57;72.00
38225;BME280;24025;48.138;11.428;2022-09-09T00:56:03;95336.56;;;16.54;72.36
38225;BME280;24025;48.138;11.428;2022-09-09T00:58:38;95337.78;;;16.49;72.20
38225;BME280;24025;48.138;11.428;2022-09-09T01:01:11;95343.56;;;16.48;72.47
38225;BME280;24025;48.138;11.428;2022-09-09T01:03:53;95339.00;;;16.45;72.67
38225;BME280;24025;48.138;11.428;2022-09-09T01:06:35;95350.97;;;16.40;72.66
38225;BME280;24025;48.138;11.428;2022-09-09T01:12:23;95348.34;;;16.33;72.88
38225;BME280;24025;48.138;11.428;2022-09-09T01:15:19;95350.69;;;16.31;72.94
38225;BME280;24025;48.138;11.428;2022-09-09T01:17:53;95349.13;;;16.33;73.31
38225;BME280;24025;48.138;11.428;2022-09-09T01:20:41;95344.91;;;16.32;73.67
38225;BME280;24025;48.138;11.428;2022-09-09T01:23:38;95346.06;;;16.35;73.76
38225;BME280;24025;48.138;11.428;2022-09-09T01:26:28;95342.59;;;16.34;73.03
38225;BME280;24025;48.138;11.428;2022-09-09T01:29:00;95346.06;;;16.35;73.05
38225;BME280;24025;48.138;11.428;2022-09-09T01:31:38;95343.75;;;16.33;73.03
38225;BME280;24025;48.138;11.428;2022-09-09T01:34:14;95334.91;;;16.33;72.99
38225;BME280;24025;48.138;11.428;2022-09-09T01:39:15;95337.66;;;16.29;72.97
38225;BME280;24025;48.138;11.428;2022-09-09T01:41:46;95347.31;;;16.27;73.09
38225;BME280;24025;48.138;11.428;2022-09-09T01:44:17;95341.94;;;16.23;72.93
38225;BME280;24025;48.138;11.428;2022-09-09T01:46:49;95335.84;;;16.19;73.14
38225;BME280;24025;48.138;11.428;2022-09-09T01:49:19;95343.19;;;16.15;73.40
38225;BME280;24025;48.138;11.428;2022-09-09T01:51:52;95342.06;;;16.12;73.30
38225;BME280;24025;48.138;11.428;2022-09-09T01:54:27;95341.72;;;16.10;73.87
38225;BME280;24025;48.138;11.428;2022-09-09T02:00:04;95345.25;;;16.04;73.42
38225;BME280;24025;48.138;11.428;2022-09-09T02:03:03;95346.41;;;16.03;74.09
38225;BME280;24025;48.138;11.428;2022-09-09T02:05:38;95328.78;;;15.98;74.42
38225;BME280;24025;48.138;11.428;2022-09-09T02:08:18;95332.22;;;15.99;74.28
38225;BME280;24025;48.138;11.428;2022-09-09T02:11:01;95328.78;;;15.98;74.06
38225;BME280;24025;48.138;11.428;2022-09-09T02:13:36;95320.72;;;15.98;73.62
38225;BME280;24025;48.138;11.428;2022-09-09T02:16:10;95323.03;;;15.96;73.82
38225;BME280;24025;48.138;11.428;2022-09-09T02:21:23;95331.16;;;15.93;74.04
38225;BME280;24025;48.138;11.428;2022-09-09T02:23:54;95328.13;;;15.91;74.29
38225;BME280;24025;48.138;11.428;2022-09-09T02:26:27;95329.25;;;15.90;74.58
38225;BME280;24025;48.138;11.428;2022-09-09T02:29:01;95326.56;;;15.90;74.48
38225;BME280;24025;48.138;11.428;2022-09-09T02:31:34;95316.63;;;15.86;74.82
38225;BME280;24025;48.138;11.428;2022-09-09T02:34:06;95324.75;;;15.83;75.34
38225;BME280;24025;48.138;11.428;2022-09-09T02:36:42;95318.22;;;15.80;75.24
38225;BME280;24025;48.138;11.428;2022-09-09T02:39:15;95322.06;;;15.79;75.21
38225;BME280;24025;48.138;11.428;2022-09-09T02:41:46;95320.19;;;15.76;75.67
38225;BME280;24025;48.138;11.428;2022-09-09T02:44:18;95323.69;;;15.73;75.76
38225;BME280;24025;48.138;11.428;2022-09-09T02:52:38;95318.78;;;15.65;75.85
38225;BME280;24025;48.138;11.428;2022-09-09T02:57:53;95317.66;;;15.58;76.53
38225;BME280;24025;48.138;11.428;2022-09-09T03:00:26;95321.09;;;15.59;76.54
38225;BME280;24025;48.138;11.428;2022-09-09T03:02:57;95319.59;;;15.58;76.68
38225;BME280;24025;48.138;11.428;2022-09-09T03:05:27;95314.22;;;15.58;76.54
38225;BME280;24025;48.138;11.428;2022-09-09T03:07:58;95312.69;;;15.57;76.69
38225;BME280;24025;48.138;11.428;2022-09-09T03:10:29;95310.41;;;15.55;76.53
38225;BME280;24025;48.138;11.428;2022-09-09T03:12:59;95315.81;;;15.52;77.29
38225;BME280;24025;48.138;11.428;2022-09-09T03:15:30;95315.84;;;15.48;76.99
38225;BME280;24025;48.138;11.428;2022-09-09T03:18:01;95313.19;;;15.45;77.53
38225;BME280;24025;48.138;11.428;2022-09-09T03:20:31;95309.38;;;15.42;77.33
38225;BME280;24025;48.138;11.428;2022-09-09T03:23:02;95309.78;;;15.41;77.78
38225;BME280;24025;48.138;11.428;2022-09-09T03:25:32;95318.22;;;15.39;77.34
38225;BME280;24025;48.138;11.428;2022-09-09T03:28:03;95313.63;;;15.40;77.16
38225;BME280;24025;48.138;11.428;2022-09-09T03:30:34;95309.78;;;15.41;77.60
38225;BME280;24025;48.138;11.428;2022-09-09T03:33:04;95312.06;;;15.42;77.71
38225;BME280;24025;48.138;11.428;2022-09-09T03:35:34;95304.41;;;15.41;77.59
38225;BME280;24025;48.138;11.428;2022-09-09T03:38:05;95306.72;;;15.39;77.43
38225;BME280;24025;48.138;11.428;2022-09-09T03:40:35;95305.56;;;15.36;77.95
38225;BME280;24025;48.138;11.428;2022-09-09T03:43:06;95301.78;;;15.34;78.04
38225;BME280;24025;48.138;11.428;2022-09-09T03:45:36;95306.44;;;15.29;78.24
38225;BME280;24025;48.138;11.428;2022-09-09T03:48:06;95315.66;;;15.28;77.96
38225;BME280;24025;48.138;11.428;2022-09-09T03:50:37;95313.72;;;15.29;78.26
38225;BME280;24025;48.138;11.428;2022-09-09T03:53:07;95313.72;;;15.29;78.05
38225;BME280;24025;48.138;11.428;2022-09-09T03:55:38;95304.84;;;15.32;78.09
38225;BME280;24025;48.138;11.428;2022-09-09T03:58:08;95309.44;;;15.35;78.06
38225;BME280;24025;48.138;11.428;2022-09-09T04:00:39;95305.56;;;15.36;78.48
38225;BME280;24025;48.138;11.428;2022-09-09T04:03:13;95296.38;;;15.37;78.22
38225;BME280;24025;48.138;11.428;2022-09-09T04:05:43;95302.50;;;15.38;78.38
38225;BME280;24025;48.138;11.428;2022-09-09T04:08:14;95303.28;;;15.35;78.41
38225;BME280;24025;48.138;11.428;2022-09-09T04:10:45;95302.16;;;15.32;78.87
38225;BME280;24025;48.138;11.428;2022-09-09T04:13:17;95299.88;;;15.30;79.14
38225;BME280;24025;48.138;11.428;2022-09-09T04:18:23;95292.22;;;15.29;78.65
38225;BME280;24025;48.138;11.428;2022-09-09T04:20:54;95296.84;;;15.28;78.26
38225;BME280;24025;48.138;11.428;2022-09-09T04:23:28;95301.44;;;15.28;78.50
38225;BME280;24025;48.138;11.428;2022-09-09T04:26:02;95295.28;;;15.27;78.96
38225;BME280;24025;48.138;11.428;2022-09-09T04:28:34;95287.22;;;15.27;78.71
38225;BME280;24025;48.138;11.428;2022-09-09T04:31:07;95287.63;;;15.29;78.41
38225;BME280;24025;48.138;11.428;2022-09-09T04:33:39;95276.13;;;15.29;78.48
38225;BME280;24025;48.138;11.428;2022-09-09T04:36:09;95271.13;;;15.27;78.18
38225;BME280;24025;48.138;11.428;2022-09-09T04:38:39;95273.44;;;15.29;78.26
38225;BME280;24025;48.138;11.428;2022-09-09T04:41:10;95284.53;;;15.31;78.39
38225;BME280;24025;48.138;11.428;2022-09-09T04:43:41;95291.44;;;15.32;78.11
38225;BME280;24025;48.138;11.428;2022-09-09T04:46:11;95276.88;;;15.29;77.94
38225;BME280;24025;48.138;11.428;2022-09-09T04:48:42;95287.97;;;15.32;78.10
38225;BME280;24025;48.138;11.428;2022-09-09T04:51:13;95280.28;;;15.34;77.92
38225;BME280;24025;48.138;11.428;2022-09-09T04:53:44;95284.84;;;15.37;78.00
38225;BME280;24025;48.138;11.428;2022-09-09T04:56:17;95277.16;;;15.39;77.45
38225;BME280;24025;48.138;11.428;2022-09-09T04:58:48;95280.63;;;15.39;77.72
38225;BME280;24025;48.138;11.428;2022-09-09T05:01:20;95285.19;;;15.42;77.50
38225;BME280;24025;48.138;11.428;2022-09-09T05:03:54;95278.25;;;15.45;77.56
38225;BME280;24025;48.138;11.428;2022-09-09T05:06:25;95278.63;;;15.47;77.69
38225;BME280;24025;48.138;11.428;2022-09-09T05:08:55;95277.06;;;15.46;77.24
38225;BME280;24025;48.138;11.428;2022-09-09T05:11:28;95286.69;;;15.47;77.35
38225;BME280;24025;48.138;11.428;2022-09-09T05:13:59;95280.91;;;15.48;77.49
38225;BME280;24025;48.138;11.428;2022-09-09T05:16:29;95285.53;;;15.48;77.23
38225;BME280;24025;48.138;11.428;2022-09-09T05:19:00;95277.06;;;15.49;77.22
38225;BME280;24025;48.138;11.428;2022-09-09T05:21:33;95287.41;;;15.51;76.49
38225;BME280;24025;48.138;11.428;2022-09-09T05:24:04;95287.81;;;15.49;76.81
38225;BME280;24025;48.138;11.428;2022-09-09T05:26:34;95294.31;;;15.52;76.64
38225;BME280;24025;48.138;11.428;2022-09-09T05:29:05;95299.28;;;15.53;76.54
38225;BME280;24025;48.138;11.428;2022-09-09T05:31:36;95297.31;;;15.57;76.37
38225;BME280;24025;48.138;11.428;2022-09-09T05:34:06;95299.59;;;15.63;76.66
38225;BME280;24025;48.138;11.428;2022-09-09T05:36:37;95297.28;;;15.65;76.29
38225;BME280;24025;48.138;11.428;2022-09-09T05:39:07;95302.22;;;15.70;76.28
38225;BME280;24025;48.138;11.428;2022-09-09T05:41:38;95302.22;;;15.70;75.77
38225;BME280;24025;48.138;11.428;2022-09-09T05:44:09;95304.50;;;15.71;75.93
38225;BME280;24025;48.138;11.428;2022-09-09T05:46:39;95289.50;;;15.74;75.90
38225;BME280;24025;48.138;11.428;2022-09-09T05:49:09;95300.63;;;15.76;76.14
38225;BME280;24025;48.138;11.428;2022-09-09T05:51:40;95304.06;;;15.76;75.78
38225;BME280;24025;48.138;11.428;2022-09-09T05:54:11;95306.34;;;15.78;76.19
38225;BME280;24025;48.138;11.428;2022-09-09T05:56:45;95308.63;;;15.79;75.62
38225;BME280;24025;48.138;11.428;2022-09-09T05:59:15;95306.31;;;15.81;75.69
38225;BME280;24025;48.138;11.428;2022-09-09T06:01:46;95308.19;;;15.84;76.00
38225;BME280;24025;48.138;11.428;2022-09-09T06:04:17;95311.59;;;15.89;75.53
38225;BME280;24025;48.138;11.428;2022-09-09T06:06:48;95308.50;;;15.90;75.70
38225;BME280;24025;48.138;11.428;2022-09-09T06:09:18;95315.03;;;15.93;76.01
38225;BME280;24025;48.138;11.428;2022-09-09T06:11:49;95317.72;;;15.93;75.43
38225;BME280;24025;48.138;11.428;2022-09-09T06:14:19;95316.16;;;15.95;75.74
38225;BME280;24025;48.138;11.428;2022-09-09T06:16:50;95309.94;;;15.98;75.79
38225;BME280;24025;48.138;11.428;2022-09-09T06:19:21;95308.75;;;16.03;75.53
38225;BME280;24025;48.138;11.428;2022-09-09T06:21:51;95312.16;;;16.07;75.84
38225;BME280;24025;48.138;11.428;2022-09-09T06:24:22;95307.16;;;16.09;75.53
38225;BME280;24025;48.138;11.428;2022-09-09T06:26:52;95316.34;;;16.11;74.88
38225;BME280;24025;48.138;11.428;2022-09-09T06:29:24;95314.34;;;16.15;75.13
38225;BME280;24025;48.138;11.428;2022-09-09T06:31:54;95309.72;;;16.20;74.80
38225;BME280;24025;48.138;11.428;2022-09-09T06:34:25;95303.94;;;16.21;74.81
38225;BME280;24025;48.138;11.428;2022-09-09T06:36:55;95311.94;;;16.25;74.90
38225;BME280;24025;48.138;11.428;2022-09-09T06:39:27;95313.44;;;16.29;74.40
38225;BME280;24025;48.138;11.428;2022-09-09T06:41:58;95319.53;;;16.33;74.80
38225;BME280;24025;48.138;11.428;2022-09-09T06:44:28;95314.53;;;16.35;74.81
38225;BME280;24025;48.138;11.428;2022-09-09T06:47:03;95316.38;;;16.38;74.74
38225;BME280;24025;48.138;11.428;2022-09-09T06:49:33;95320.19;;;16.41;74.76
38225;BME280;24025;48.138;11.428;2022-09-09T06:52:05;95329.41;;;16.43;74.58
38225;BME280;24025;48.138;11.428;2022-09-09T06:54:35;95335.56;;;16.44;74.73
38225;BME280;24025;48.138;11.428;2022-09-09T06:57:07;95332.09;;;16.43;74.45
38225;BME280;24025;48.138;11.428;2022-09-09T06:59:38;95333.63;;;16.45;74.63
38225;BME280;24025;48.138;11.428;2022-09-09T07:02:08;95350.94;;;16.43;74.63
38225;BME280;24025;48.138;11.428;2022-09-09T07:04:38;95377.44;;;16.45;74.49
38225;BME280;24025;48.138;11.428;2022-09-09T07:07:09;95381.31;;;16.44;74.80
38225;BME280;24025;48.138;11.428;2022-09-09T07:09:42;95368.63;;;16.41;74.61
38225;BME280;24025;48.138;11.428;2022-09-09T07:12:12;95370.91;;;16.46;74.17
38225;BME280;24025;48.138;11.428;2022-09-09T07:14:43;95381.53;;;16.57;74.26
38225;BME280;24025;48.138;11.428;2022-09-09T07:17:13;95377.94;;;16.67;74.88
38225;BME280;24025;48.138;11.428;2022-09-09T07:19:44;95374.72;;;16.79;74.77
38225;BME280;24025;48.138;11.428;2022-09-09T07:22:14;95372.31;;;16.85;75.09
38225;BME280;24025;48.138;11.428;2022-09-09T07:24:46;95377.56;;;16.95;75.23
38225;BME280;24025;48.138;11.428;2022-09-09T07:27:16;95376.25;;;17.07;74.86
38225;BME280;24025;48.138;11.428;2022-09-09T07:29:47;95378.47;;;17.12;75.39
38225;BME280;24025;48.138;11.428;2022-09-09T07:32:17;95373.69;;;17.23;74.64
38225;BME280;24025;48.138;11.428;2022-09-09T07:34:49;95373.88;;;17.36;74.80
38225;BME280;24025;48.138;11.428;2022-09-09T07:37:20;95374.47;;;17.47;74.96
38225;BME280;24025;48.138;11.428;2022-09-09T07:39:52;95373.50;;;17.58;74.87
38225;BME280;24025;48.138;11.428;2022-09-09T07:42:22;95380.69;;;17.68;73.94
38225;BME280;24025;48.138;11.428;2022-09-09T07:44:52;95385.59;;;17.76;72.72
38225;BME280;24025;48.138;11.428;2022-09-09T07:47:25;95390.56;;;17.78;71.79
38225;BME280;24025;48.138;11.428;2022-09-09T07:49:55;95392.72;;;17.87;72.00
38225;BME280;24025;48.138;11.428;2022-09-09T07:52:26;95398.69;;;17.98;70.69
38225;BME280;24025;48.138;11.428;2022-09-09T07:54:57;95389.75;;;18.01;70.77
38225;BME280;24025;48.138;11.428;2022-09-09T07:57:29;95394.25;;;18.07;69.98
38225;BME280;24025;48.138;11.428;2022-09-09T08:00:03;95397.66;;;18.11;69.37
38225;BME280;24025;48.138;11.428;2022-09-09T08:02:34;95401.88;;;18.13;68.81
38225;BME280;24025;48.138;11.428;2022-09-09T08:05:04;95402.69;;;18.09;68.61
38225;BME280;24025;48.138;11.428;2022-09-09T08:07:36;95409.81;;;18.00;68.88
38225;BME280;24025;48.138;11.428;2022-09-09T08:10:06;95401.09;;;17.92;68.76
38225;BME280;24025;48.138;11.428;2022-09-09T08:12:37;95410.78;;;17.90;69.33
38225;BME280;24025;48.138;11.428;2022-09-09T08:15:07;95418.97;;;17.82;69.51
38225;BME280;24025;48.138;11.428;2022-09-09T08:17:38;95410.53;;;17.80;69.98
38225;BME280;24025;48.138;11.428;2022-09-09T08:20:08;95419.50;;;17.74;70.08
38225;BME280;24025;48.138;11.428;2022-09-09T08:22:39;95428.47;;;17.67;70.29
38225;BME280;24025;48.138;11.428;2022-09-09T08:25:09;95426.56;;;17.64;70.96
38225;BME280;24025;48.138;11.428;2022-09-09T08:27:40;95429.38;;;17.57;71.84
38225;BME280;24025;48.138;11.428;2022-09-09T08:30:11;95428.28;;;17.54;72.13
38225;BME280;24025;48.138;11.428;2022-09-09T08:32:42;95431.38;;;17.53;71.00
38225;BME280;24025;48.138;11.428;2022-09-09T08:35:13;95425.56;;;17.54;72.05
38225;BME280;24025;48.138;11.428;2022-09-09T08:37:43;95431.97;;;17.64;71.70
38225;BME280;24025;48.138;11.428;2022-09-09T08:40:24;95431.44;;;17.76;72.51
38225;BME280;24025;48.138;11.428;2022-09-09T08:42:58;95426.19;;;17.89;71.22
38225;BME280;24025;48.138;11.428;2022-09-09T08:45:37;95431.53;;;17.93;70.46
38225;BME280;24025;48.138;11.428;2022-09-09T08:51:15;95437.66;;;18.17;69.03
38225;BME280;24025;48.138;11.428;2022-09-09T08:53:48;95432.44;;;18.29;69.13
38225;BME280;24025;48.138;11.428;2022-09-09T08:56:22;95439.19;;;18.37;67.45
38225;BME280;24025;48.138;11.428;2022-09-09T08:58:55;95437.06;;;18.49;65.79
38225;BME280;24025;48.138;11.428;2022-09-09T09:01:41;95428.06;;;18.55;65.86
38225;BME280;24025;48.138;11.428;2022-09-09T09:04:32;95422.75;;;18.72;67.04
38225;BME280;24025;48.138;11.428;2022-09-09T09:09:49;95426.97;;;18.92;66.61
38225;BME280;24025;48.138;11.428;2022-09-09T09:12:28;95424.09;;;19.00;65.55
38225;BME280;24025;48.138;11.428;2022-09-09T09:15:00;95426.72;;;19.03;64.46
38225;BME280;24025;48.138;11.428;2022-09-09T09:17:31;95423.13;;;19.10;65.46
38225;BME280;24025;48.138;11.428;2022-09-09T09:20:10;95421.25;;;19.23;68.23
38225;BME280;24025;48.138;11.428;2022-09-09T09:22:51;95422.94;;;19.33;66.47
38225;BME280;24025;48.138;11.428;2022-09-09T09:25:23;95426.59;;;19.43;65.93
38225;BME280;24025;48.138;11.428;2022-09-09T09:28:01;95420.03;;;19.44;65.77
38225;BME280;24025;48.138;11.428;2022-09-09T09:30:42;95429.72;;;19.41;65.24
38225;BME280;24025;48.138;11.428;2022-09-09T09:35:52;95435.97;;;19.22;64.20
38225;BME280;24025;48.138;11.428;2022-09-09T09:38:25;95436.78;;;19.03;63.69
38225;BME280;24025;48.138;11.428;2022-09-09T09:40:58;95438.59;;;18.89;65.02
38225;BME280;24025;48.138;11.428;2022-09-09T09:43:33;95441.94;;;18.77;68.10
38225;BME280;24025;48.138;11.428;2022-09-09T09:46:04;95431.59;;;18.72;67.50
38225;BME280;24025;48.138;11.428;2022-09-09T09:48:35;95439.88;;;18.65;67.41
38225;BME280;24025;48.138;11.428;2022-09-09T09:51:09;95433.41;;;18.59;67.55
38225;BME280;24025;48.138;11.428;2022-09-09T09:53:40;95431.59;;;18.52;68.37
38225;BME280;24025;48.138;11.428;2022-09-09T09:56:13;95434.03;;;18.47;69.08
38225;BME280;24025;48.138;11.428;2022-09-09T10:01:22;95430.84;;;18.32;70.87
38225;BME280;24025;48.138;11.428;2022-09-09T10:03:59;95431.66;;;18.29;70.38
38225;BME280;24025;48.138;11.428;2022-09-09T10:06:35;95439.78;;;18.29;69.88
38225;BME280;24025;48.138;11.428;2022-09-09T10:09:25;95440.13;;;18.31;70.50
38225;BME280;24025;48.138;11.428;2022-09-09T10:18:01;95431.38;;;18.63;68.66
38225;BME280;24025;48.138;11.428;2022-09-09T10:20:57;95427.94;;;18.82;68.82
38225;BME280;24025;48.138;11.428;2022-09-09T10:29:11;95438.47;;;19.13;69.68
38225;BME280;24025;48.138;11.428;2022-09-09T10:46:14;95431.66;;;19.24;63.70
38225;BME280;24025;48.138;11.428;2022-09-09T10:57:13;95430.69;;;19.67;62.15
38225;BME280;24025;48.138;11.428;2022-09-09T10:59:49;95424.94;;;19.82;61.22
38225;BME280;24025;48.138;11.428;2022-09-09T11:02:29;95426.59;;;20.08;61.21
38225;BME280;24025;48.138;11.428;2022-09-09T11:05:21;95420.41;;;20.36;60.69
38225;BME280;24025;48.138;11.428;2022-09-09T11:08:10;95422.31;;;20.81;58.69
38225;BME280;24025;48.138;11.428;2022-09-09T11:10:48;95421.81;;;21.12;58.29
38225;BME280;24025;48.138;11.428;2022-09-09T11:13:53;95419.44;;;21.39;56.09
38225;BME280;24025;48.138;11.428;2022-09-09T11:16:41;95420.84;;;21.57;54.73
38225;BME280;24025;48.138;11.428;2022-09-09T11:22:23;95415.16;;;21.76;54.12
38225;BME280;24025;48.138;11.428;2022-09-09T11:25:05;95413.59;;;21.88;53.38
38225;BME280;24025;48.138;11.428;2022-09-09T11:41:42;95415.41;;;21.44;53.63
38225;BME280;24025;48.138;11.428;2022-09-09T11:44:16;95405.75;;;21.43;54.08
38225;BME280;24025;48.138;11.428;2022-09-09T11:46:50;95414.88;;;21.36;53.98
38225;BME280;24025;48.138;11.428;2022-09-09T11:49:28;95407.81;;;21.13;54.60
38225;BME280;24025;48.138;11.428;2022-09-09T11:52:11;95408.66;;;21.10;54.13
38225;BME280;24025;48.138;11.428;2022-09-09T11:54:47;95415.41;;;21.06;55.54
38225;BME280;24025;48.138;11.428;2022-09-09T11:57:32;95416.47;;;20.96;56.77
38225;BME280;24025;48.138;11.428;2022-09-09T12:00:05;95419.06;;;20.86;55.99
38225;BME280;24025;48.138;11.428;2022-09-09T12:02:36;95413.53;;;20.90;56.14
38225;BME280;24025;48.138;11.428;2022-09-09T12:05:13;95411.50;;;20.94;55.84
38225;BME280;24025;48.138;11.428;2022-09-09T12:07:52;95409.97;;;21.06;55.36
38225;BME280;24025;48.138;11.428;2022-09-09T12:10:33;95412.81;;;21.28;54.75
38225;BME280;24025;48.138;11.428;2022-09-09T12:13:15;95405.31;;;21.44;53.97
38225;BME280;24025;48.138;11.428;2022-09-09T12:15:47;95401.75;;;21.47;53.93
38225;BME280;24025;48.138;11.428;2022-09-09T12:18:31;95408.25;;;21.50;53.94
38225;BME280;24025;48.138;11.428;2022-09-09T12:23:55;95406.28;;;21.63;52.77
38225;BME280;24025;48.138;11.428;2022-09-09T12:37:04;95396.25;;;21.86;49.97
38225;BME280;24025;48.138;11.428;2022-09-09T12:39:39;95387.84;;;21.58;49.53
38225;BME280;24025;48.138;11.428;2022-09-09T12:42:17;95391.09;;;21.53;49.62
38225;BME280;24025;48.138;11.428;2022-09-09T12:44:59;95392.06;;;21.59;50.36
38225;BME280;24025;48.138;11.428;2022-09-09T12:47:40;95388.59;;;21.59;49.18
38225;BME280;24025;48.138;11.428;2022-09-09T12:52:50;95382.97;;;21.40;51.38
38225;BME280;24025;48.138;11.428;2022-09-09T12:55:25;95386.00;;;21.42;52.83
38225;BME280;24025;48.138;11.428;2022-09-09T12:57:58;95387.00;;;21.48;52.41
38225;BME280;24025;48.138;11.428;2022-09-09T13:00:30;95382.84;;;21.57;52.76
38225;BME280;24025;48.138;11.428;2022-09-09T13:03:16;95375.78;;;21.59;53.30
38225;BME280;24025;48.138;11.428;2022-09-09T13:05:47;95374.34;;;21.67;52.24
38225;BME280;24025;48.138;11.428;2022-09-09T13:08:18;95371.72;;;21.76;52.35
38225;BME280;24025;48.138;11.428;2022-09-09T13:11:01;95371.44;;;21.96;51.95
38225;BME280;24025;48.138;11.428;2022-09-09T13:13:37;95370.22;;;22.10;51.29
38225;BME280;24025;48.138;11.428;2022-09-09T13:16:26;95363.72;;;22.29;51.02
38225;BME280;24025;48.138;11.428;2022-09-09T13:19:07;95363.84;;;22.48;50.87
38225;BME280;24025;48.138;11.428;2022-09-09T13:21:39;95351.91;;;22.45;50.00
38225;BME280;24025;48.138;11.428;2022-09-09T13:24:26;95357.72;;;22.56;49.87
38225;BME280;24025;48.138;11.428;2022-09-09T13:27:25;95347.91;;;22.59;49.36
38225;BME280;24025;48.138;11.428;2022-09-09T13:29:55;95344.97;;;22.44;49.55
38225;BME280;24025;48.138;11.428;2022-09-09T13:32:27;95344.13;;;22.34;49.84
38225;BME280;24025;48.138;11.428;2022-09-09T13:35:00;95336.94;;;22.19;50.08
38225;BME280;24025;48.138;11.428;2022-09-09T13:37:36;95337.50;;;22.14;50.97
38225;BME280;24025;48.138;11.428;2022-09-09T13:40:18;95332.81;;;21.92;50.56
38225;BME280;24025;48.138;11.428;2022-09-09T13:42:56;95340.44;;;21.72;51.21
38225;BME280;24025;48.138;11.428;2022-09-09T13:45:27;95338.00;;;21.65;52.06
38225;BME280;24025;48.138;11.428;2022-09-09T13:48:08;95343.88;;;21.51;52.63
38225;BME280;24025;48.138;11.428;2022-09-09T13:50:39;95333.50;;;21.36;52.96
38225;BME280;24025;48.138;11.428;2022-09-09T13:53:11;95333.06;;;21.12;53.54
38225;BME280;24025;48.138;11.428;2022-09-09T13:55:42;95327.97;;;21.02;53.68
38225;BME280;24025;48.138;11.428;2022-09-09T13:58:16;95332.63;;;20.76;53.36
38225;BME280;24025;48.138;11.428;2022-09-09T14:00:49;95331.97;;;20.59;53.93
38225;BME280;24025;48.138;11.428;2022-09-09T14:03:20;95334.03;;;20.55;55.20
38225;BME280;24025;48.138;11.428;2022-09-09T14:05:51;95331.50;;;20.48;55.30
38225;BME280;24025;48.138;11.428;2022-09-09T14:08:24;95337.22;;;20.37;55.73
38225;BME280;24025;48.138;11.428;2022-09-09T14:10:55;95334.41;;;20.41;55.52
38225;BME280;24025;48.138;11.428;2022-09-09T14:13:28;95332.13;;;20.39;55.66
38225;BME280;24025;48.138;11.428;2022-09-09T14:15:58;95333.91;;;20.46;55.05
38225;BME280;24025;48.138;11.428;2022-09-09T14:18:29;95336.84;;;20.51;55.24
38225;BME280;24025;48.138;11.428;2022-09-09T14:20:59;95337.06;;;20.57;55.24
38225;BME280;24025;48.138;11.428;2022-09-09T14:23:30;95344.31;;;20.47;55.39
38225;BME280;24025;48.138;11.428;2022-09-09T14:26:00;95350.66;;;20.41;55.55
38225;BME280;24025;48.138;11.428;2022-09-09T14:28:31;95354.84;;;20.29;56.00
38225;BME280;24025;48.138;11.428;2022-09-09T14:31:03;95351.13;;;20.23;55.63
38225;BME280;24025;48.138;11.428;2022-09-09T14:33:35;95343.13;;;20.19;56.20
38225;BME280;24025;48.138;11.428;2022-09-09T14:36:06;95349.78;;;20.02;55.90
38225;BME280;24025;48.138;11.428;2022-09-09T14:38:37;95353.53;;;19.92;56.29
38225;BME280;24025;48.138;11.428;2022-09-09T14:41:14;95349.16;;;19.82;55.80
38225;BME280;24025;48.138;11.428;2022-09-09T14:43:47;95350.22;;;19.71;56.86
38225;BME280;24025;48.138;11.428;2022-09-09T14:46:18;95354.59;;;19.65;57.14
38225;BME280;24025;48.138;11.428;2022-09-09T14:48:49;95355.69;;;19.68;57.52
38225;BME280;24025;48.138;11.428;2022-09-09T14:51:25;95359.00;;;19.59;57.03
38225;BME280;24025;48.138;11.428;2022-09-09T14:53:58;95351.75;;;19.56;57.85
38225;BME280;24025;48.138;11.428;2022-09-09T14:56:30;95357.72;;;19.47;57.69
38225;BME280;24025;48.138;11.428;2022-09-09T14:59:01;95352.16;;;19.55;57.91
38225;BME280;24025;48.138;11.428;2022-09-09T15:01:32;95357.13;;;19.72;57.32
38225;BME280;24025;48.138;11.428;2022-09-09T15:04:05;95357.88;;;19.89;57.23
38225;BME280;24025;48.138;11.428;2022-09-09T15:06:35;95360.94;;;20.33;55.09
38225;BME280;24025;48.138;11.428;2022-09-09T15:09:09;95366.97;;;23.89;47.72
38225;BME280;24025;48.138;11.428;2022-09-09T15:11:40;95350.78;;;26.74;40.50
38225;BME280;24025;48.138;11.428;2022-09-09T15:14:11;95347.69;;;26.13;40.73
38225;BME280;24025;48.138;11.428;2022-09-09T15:16:42;95339.75;;;26.53;39.65
38225;BME280;24025;48.138;11.428;2022-09-09T15:19:12;95337.00;;;31.83;31.59